Hollidaysburg, Pennsylvania
Current Conditions -  °F | °C
As of 4:53 AM on Friday 19 Dec 2014 (Local Time) from KAOO Reporting Station
Overcast Overcast  
Wind Chill: 17°   Ceiling: 1800
Heat Index: 28°   Visibility: 10mi
Dew Point: 23°   Wind: 14mph
Humidity: 81%   Direction: 290°WNW
Pressure: 30.07"   Gusts: 23mph
Location:  40.43°N, 78.39°W
Report Text: KAOO 190953Z AUTO 29012G20KT 10SM OVC018 M02/M05 A3007 RMK AO2 SLP199 T10221050
Loading
Personal Weather Stations






























Interactive Weather Map New forecast layout! Learn more

10-Day Weather Forecast

Advertisements
Track Severe Weather on mobile